createdAt,value
2022-08-17T00:03:59.467Z,11.30
2022-08-17T00:09:08.372Z,10.83
2022-08-17T00:14:18.731Z,10.23
2022-08-17T00:19:27.095Z,11.33
2022-08-17T00:24:34.949Z,10.13
2022-08-17T00:29:42.838Z,10.47
2022-08-17T00:34:50.687Z,11.37
2022-08-17T00:39:59.075Z,11.20
2022-08-17T00:45:08.928Z,10.33
2022-08-17T00:50:18.322Z,10.43
2022-08-17T00:55:26.200Z,11.10
2022-08-17T01:00:37.499Z,11.70
2022-08-17T01:05:45.392Z,11.63
2022-08-17T01:10:58.521Z,11.60
2022-08-17T01:16:07.316Z,10.87
2022-08-17T01:21:19.565Z,11.30
2022-08-17T01:26:27.664Z,11.40
2022-08-17T01:31:38.687Z,12.07
2022-08-17T01:36:47.868Z,11.60
2022-08-17T01:41:59.040Z,10.47
2022-08-17T01:47:08.188Z,9.93
2022-08-17T01:52:16.006Z,11.67
2022-08-17T01:57:23.928Z,12.53
2022-08-17T02:02:31.809Z,11.63
2022-08-17T02:07:59.944Z,11.83
2022-08-17T02:12:50.831Z,11.67
2022-08-17T02:17:58.964Z,10.97
2022-08-17T02:23:09.078Z,11.23
2022-08-17T02:28:18.176Z,10.47
2022-08-17T02:33:42.228Z,9.83
2022-08-17T02:38:37.156Z,9.83
2022-08-17T02:43:45.524Z,10.40
2022-08-17T02:48:53.496Z,10.30
2022-08-17T02:54:39.086Z,10.30
2022-08-17T02:59:10.894Z,10.30
2022-08-17T03:04:18.786Z,9.80
2022-08-17T03:09:26.642Z,9.30
2022-08-17T03:14:38.146Z,9.93
2022-08-17T03:19:44.443Z,10.40
2022-08-17T03:24:52.277Z,10.00
2022-08-17T03:30:01.374Z,9.50
2022-08-17T03:35:09.387Z,9.30
2022-08-17T03:40:17.596Z,9.60
2022-08-17T03:45:28.882Z,9.47
2022-08-17T03:50:40.105Z,9.03
2022-08-17T03:55:51.209Z,9.60
2022-08-17T04:00:59.059Z,9.30
2022-08-17T04:06:07.359Z,8.17
2022-08-17T04:11:15.202Z,9.30
2022-08-17T04:16:23.603Z,9.23
2022-08-17T04:21:31.481Z,9.93
2022-08-17T04:26:53.283Z,9.20
2022-08-17T04:31:49.017Z,8.87
2022-08-17T04:36:57.460Z,10.30
2022-08-17T04:42:09.673Z,10.80
2022-08-17T04:47:17.905Z,9.40
2022-08-17T04:52:43.298Z,8.73
2022-08-17T04:57:37.674Z,9.53
2022-08-17T05:02:49.880Z,10.67
2022-08-17T05:07:59.757Z,13.33
2022-08-17T05:13:11.191Z,13.07
2022-08-17T05:18:19.390Z,10.33
2022-08-17T05:23:36.527Z,11.17
2022-08-17T05:28:38.190Z,11.93
2022-08-17T05:33:47.973Z,14.00
2022-08-17T05:38:56.102Z,13.70
2022-08-17T05:44:05.394Z,16.40
2022-08-17T05:49:13.546Z,15.80
2022-08-17T05:54:23.249Z,13.77
2022-08-17T05:59:34.275Z,16.57
2022-08-17T06:04:45.280Z,15.77
2022-08-17T06:15:39.591Z,15.13
2022-08-17T06:26:12.434Z,16.80
2022-08-17T06:31:23.133Z,15.73
2022-08-17T06:41:49.724Z,14.23
2022-08-17T06:47:00.716Z,11.77
2022-08-17T06:52:12.596Z,12.57
2022-08-17T06:57:25.501Z,11.13
2022-08-17T07:02:52.194Z,12.27
2022-08-17T07:07:51.239Z,10.60
2022-08-17T07:13:03.817Z,10.27
2022-08-17T07:18:11.752Z,8.80
2022-08-17T07:23:24.110Z,9.80
2022-08-17T07:28:32.089Z,8.10
2022-08-17T07:33:41.238Z,8.00
2022-08-17T07:38:52.176Z,7.30
2022-08-17T07:44:00.093Z,6.77
2022-08-17T07:49:13.584Z,6.97
2022-08-17T07:54:24.300Z,6.73
2022-08-17T07:59:35.638Z,6.07
2022-08-17T08:05:00.252Z,5.80
2022-08-17T08:09:59.547Z,5.33
2022-08-17T08:15:10.611Z,5.87
2022-08-17T08:20:37.095Z,6.30
2022-08-17T08:25:32.999Z,6.03
2022-08-17T08:30:45.058Z,6.70
2022-08-17T08:35:58.736Z,6.60
2022-08-17T08:41:09.816Z,6.47
2022-08-17T08:46:20.860Z,6.07
2022-08-17T08:51:31.891Z,6.30
2022-08-17T08:57:11.607Z,6.13
2022-08-17T09:07:11.525Z,6.30
2022-08-17T09:12:22.923Z,6.97
2022-08-17T09:17:33.978Z,6.07
2022-08-17T09:22:45.072Z,6.33
2022-08-17T09:33:19.485Z,6.47
2022-08-17T09:38:32.618Z,6.53
2022-08-17T09:43:44.601Z,5.83
2022-08-17T09:48:55.659Z,5.87
2022-08-17T09:54:34.796Z,5.97
2022-08-17T09:59:17.440Z,6.17
2022-08-17T10:04:30.006Z,6.73
2022-08-17T10:09:40.991Z,6.23
2022-08-17T10:20:07.545Z,6.33
2022-08-17T10:25:23.941Z,6.63
2022-08-17T10:30:29.738Z,6.33
2022-08-17T10:35:41.479Z,6.43
2022-08-17T10:40:53.149Z,6.47
2022-08-17T10:46:27.658Z,6.50
2022-08-17T10:51:16.660Z,6.23
2022-08-17T10:56:25.146Z,6.23
2022-08-17T11:01:38.198Z,5.50
2022-08-17T11:06:49.528Z,6.30
2022-08-17T11:12:01.194Z,6.13
2022-08-17T11:17:13.118Z,5.87
2022-08-17T11:22:32.766Z,6.17
2022-08-17T11:27:37.079Z,5.13
2022-08-17T11:32:54.375Z,5.87
2022-08-17T11:38:03.262Z,5.63
2022-08-17T11:43:14.245Z,10.23
2022-08-17T11:48:28.652Z,5.53
2022-08-17T11:58:51.553Z,6.00
2022-08-17T12:04:04.365Z,6.40
2022-08-17T12:09:16.198Z,5.90
2022-08-17T12:14:51.351Z,6.07
2022-08-17T12:19:37.669Z,5.23
2022-08-17T12:24:49.208Z,6.00
2022-08-17T12:29:57.195Z,6.07
2022-08-17T12:35:05.882Z,5.33
2022-08-17T12:40:16.936Z,6.23
2022-08-17T12:45:29.496Z,5.50
2022-08-17T12:50:39.471Z,4.90
2022-08-17T12:55:47.452Z,4.90
2022-08-17T13:00:58.481Z,4.70
2022-08-17T13:06:08.794Z,4.33
2022-08-17T13:11:20.372Z,4.63
2022-08-17T13:16:31.934Z,4.23
2022-08-17T13:21:39.957Z,4.30
2022-08-17T13:26:51.092Z,5.40
2022-08-17T13:32:04.402Z,5.00
2022-08-17T13:37:16.005Z,5.13
2022-08-17T13:42:27.039Z,4.30
2022-08-17T13:47:36.758Z,4.83
2022-08-17T13:52:50.030Z,5.03
2022-08-17T13:58:06.571Z,4.70
2022-08-17T14:03:06.336Z,5.10
2022-08-17T14:08:15.549Z,4.63
2022-08-17T14:13:23.731Z,4.67
2022-08-17T14:18:55.323Z,4.60
2022-08-17T14:23:43.607Z,4.60
2022-08-17T14:28:56.316Z,4.80
2022-08-17T14:34:02.382Z,4.20
2022-08-17T14:39:11.235Z,4.90
2022-08-17T14:44:20.082Z,4.53
2022-08-17T14:49:28.395Z,4.97
2022-08-17T14:54:36.222Z,5.20
2022-08-17T14:59:44.600Z,4.40
2022-08-17T15:04:52.501Z,4.27
2022-08-17T15:10:02.379Z,4.30
2022-08-17T15:15:12.641Z,4.20
2022-08-17T15:20:24.077Z,4.60
2022-08-17T15:25:33.151Z,5.27
2022-08-17T15:30:42.967Z,5.20
2022-08-17T15:35:53.686Z,5.10
2022-08-17T15:41:12.423Z,5.40
2022-08-17T15:46:24.355Z,5.00
2022-08-17T15:51:34.438Z,5.83
2022-08-17T15:56:42.346Z,5.43
2022-08-17T16:03:14.650Z,5.37
2022-08-17T16:07:00.744Z,5.00
2022-08-17T16:12:11.232Z,4.73
2022-08-17T16:17:38.990Z,5.80
2022-08-17T16:22:32.596Z,5.47
2022-08-17T16:27:42.025Z,4.67
2022-08-17T16:32:51.860Z,4.20
2022-08-17T16:38:02.815Z,4.67
2022-08-17T16:43:12.257Z,5.40
2022-08-17T16:48:20.189Z,4.97
2022-08-17T16:53:28.421Z,4.63
2022-08-17T16:58:37.805Z,5.23
2022-08-17T17:03:53.129Z,4.90
2022-08-17T17:09:02.268Z,4.97
2022-08-17T17:14:14.029Z,5.20
2022-08-17T17:19:34.242Z,6.60
2022-08-17T17:24:50.701Z,5.20
2022-08-17T17:30:02.155Z,6.30
2022-08-17T17:35:16.265Z,6.00
2022-08-17T17:40:27.509Z,5.87
2022-08-17T17:45:39.589Z,6.63
2022-08-17T17:50:51.136Z,5.47
2022-08-17T17:56:04.757Z,5.07
2022-08-17T18:06:34.243Z,5.43
2022-08-17T18:11:51.472Z,5.87
2022-08-17T18:17:01.317Z,5.97
2022-08-17T18:22:14.574Z,6.07
2022-08-17T18:27:30.071Z,6.27
2022-08-17T18:32:42.511Z,6.53
2022-08-17T18:37:53.348Z,7.50
2022-08-17T18:48:20.448Z,8.20
2022-08-17T18:53:33.954Z,8.00
2022-08-17T18:58:43.264Z,8.40
2022-08-17T19:03:52.030Z,8.83
2022-08-17T19:09:01.451Z,9.27
2022-08-17T19:14:13.024Z,9.53
2022-08-17T19:19:24.292Z,10.63
2022-08-17T19:24:33.768Z,9.37
2022-08-17T19:29:46.509Z,9.60
2022-08-17T19:34:54.555Z,10.03
2022-08-17T19:40:06.052Z,10.17
2022-08-17T19:50:30.173Z,9.70
2022-08-17T19:55:43.301Z,9.70
2022-08-17T20:00:52.801Z,9.93
2022-08-17T20:06:13.085Z,9.33
2022-08-17T20:11:17.112Z,10.00
2022-08-17T20:16:25.051Z,10.03
2022-08-17T20:21:37.422Z,10.40
2022-08-17T20:26:57.980Z,17.37
2022-08-17T20:37:22.626Z,9.37
2022-08-17T20:42:31.999Z,8.73
2022-08-17T20:48:00.827Z,8.53
2022-08-17T20:52:53.733Z,8.83
2022-08-17T20:58:05.189Z,9.77
2022-08-17T21:03:16.165Z,8.70
2022-08-17T21:08:28.023Z,9.50
2022-08-17T21:13:39.051Z,10.87
2022-08-17T21:18:50.112Z,10.23
2022-08-17T21:24:01.669Z,10.87
2022-08-17T21:29:31.447Z,10.27
2022-08-17T21:39:35.484Z,10.33
2022-08-17T21:44:46.505Z,10.93
2022-08-17T21:49:55.353Z,10.97
2022-08-17T21:55:03.504Z,11.00
2022-08-17T22:00:13.668Z,10.50
2022-08-17T22:05:26.623Z,11.90
2022-08-17T22:15:48.727Z,11.40
2022-08-17T22:20:57.792Z,11.60
2022-08-17T22:26:09.595Z,11.20
2022-08-17T22:31:18.346Z,9.80
2022-08-17T22:36:30.928Z,11.03
2022-08-17T22:41:42.631Z,11.83
2022-08-17T22:46:53.611Z,11.10
2022-08-17T22:52:03.097Z,12.37
2022-08-17T22:57:13.767Z,11.67
2022-08-17T23:07:34.225Z,10.63
2022-08-17T23:12:42.082Z,11.47
2022-08-17T23:17:50.118Z,10.77
2022-08-17T23:22:59.771Z,10.10
2022-08-17T23:28:08.308Z,10.90
2022-08-17T23:33:21.614Z,11.60
2022-08-17T23:43:50.833Z,12.50
2022-08-17T23:49:00.641Z,12.17
2022-08-17T23:54:11.999Z,12.27
2022-08-17T23:59:21.311Z,11.63
